Terminal Aerodrome Forecast
Issued by NWS

Current Version | Previous Version | Text Only | Print | Product List | Glossary Off
Versions: 1 2 3 4 5 6 7 8 9 10 11 12 13 14 15 16 17

000
FTUS41 KPBZ 282320
TAFMGW
TAF
KMGW 282320Z 2900/2924 22003KT P6SM SCT035
     FM290900 VRB03KT 3SM BR SCT150
     FM291300 18005KT P6SM BKN150=

USA.gov is the U.S. government's official web portal to all federal, state and local government web resources and services.